Time;durP1;ratioP1;P1;durP2;ratioP2;P2;SDS_P1;SDS_P2;PMS_P1;PMS_P2;Temp;Humidity;BMP_temperature;BMP_pressure;BME280_temperature;BME280_humidity;BME280_pressure;Samples;Min_cycle;Max_cycle;Signal;HPM_P1;HPM_P2
2023/06/26 00:00:15;;;;;;;;;;;18.20;97.70;;;;;;5101768;28;19909;-57
2023/06/26 00:02:40;;;;;;;;;;;18.20;95.90;;;;;;5101278;28;20336;-56
2023/06/26 00:05:06;;;;;;;;;;;18.20;97.60;;;;;;5101424;28;19912;-53
2023/06/26 00:07:34;;;;;;;;;;;18.20;99.90;;;;;;5101390;28;20059;-57
2023/06/26 00:09:59;;;;;;;;;;;18.10;97.30;;;;;;5101515;28;19908;-56
2023/06/26 00:12:25;;;;;;;;;;;18.10;96.70;;;;;;5101026;28;19935;-56
2023/06/26 00:14:51;;;;;;;;;;;18.10;97.80;;;;;;5101074;28;19908;-56
2023/06/26 00:17:16;;;;;;;;;;;18.00;96.90;;;;;;5100888;28;19908;-55
2023/06/26 00:19:42;;;;;;;;;;;18.00;97.30;;;;;;5101325;28;19908;-56
2023/06/26 00:22:07;;;;;;;;;;;18.00;97.60;;;;;;5101099;28;19918;-56
2023/06/26 00:24:33;;;;;;;;;;;17.90;98.50;;;;;;5101000;28;19938;-57
2023/06/26 00:26:59;;;;;;;;;;;17.90;97.20;;;;;;5101324;28;19987;-56
2023/06/26 00:29:24;;;;;;;;;;;17.90;96.80;;;;;;5101072;28;19916;-57
2023/06/26 00:31:50;;;;;;;;;;;17.90;97.10;;;;;;5100874;28;19916;-56
2023/06/26 00:34:15;;;;;;;;;;;17.80;96.90;;;;;;5100616;28;19915;-55
2023/06/26 00:36:44;;;;;;;;;;;17.80;97.80;;;;;;5100603;28;19949;-55
2023/06/26 00:39:10;;;;;;;;;;;17.80;99.30;;;;;;5101057;28;19908;-55
2023/06/26 00:41:36;;;;;;;;;;;17.70;99.00;;;;;;5100677;28;19955;-57
2023/06/26 00:44:02;;;;;;;;;;;17.70;98.40;;;;;;5100927;28;19915;-56
2023/06/26 00:46:28;;;;;;;;;;;17.70;99.00;;;;;;5101104;28;19940;-57
2023/06/26 00:48:54;;;;;;;;;;;17.60;98.20;;;;;;5100471;28;19913;-56
2023/06/26 00:51:19;;;;;;;;;;;17.60;99.30;;;;;;5100680;28;20375;-55
2023/06/26 00:53:45;;;;;;;;;;;17.60;99.90;;;;;;5100253;28;19912;-56
2023/06/26 00:56:11;;;;;;;;;;;17.50;98.90;;;;;;5100774;28;20284;-56
2023/06/26 00:58:37;;;;;;;;;;;17.60;98.70;;;;;;5100835;28;20295;-57
2023/06/26 01:01:05;;;;;;;;;;;17.50;98.10;;;;;;5100384;28;20003;-57
2023/06/26 01:03:31;;;;;;;;;;;17.50;98.50;;;;;;5100283;28;20334;-57
2023/06/26 01:05:58;;;;;;;;;;;17.40;98.80;;;;;;5100440;28;19908;-54
2023/06/26 01:08:24;;;;;;;;;;;17.40;98.60;;;;;;5100104;28;19911;-57
2023/06/26 01:10:50;;;;;;;;;;;17.30;98.30;;;;;;5099787;28;20397;-56
2023/06/26 01:13:16;;;;;;;;;;;17.30;98.60;;;;;;5100592;28;20019;-56
2023/06/26 01:15:42;;;;;;;;;;;17.30;98.30;;;;;;5100243;28;19908;-57
2023/06/26 01:18:08;;;;;;;;;;;17.20;98.60;;;;;;5098735;28;19909;-57
2023/06/26 01:20:41;;;;;;;;;;;17.20;98.00;;;;;;5100149;28;19908;-55
2023/06/26 01:23:14;;;;;;;;;;;17.20;99.00;;;;;;5100064;28;19908;-56
2023/06/26 01:25:55;;;;;;;;;;;17.20;98.80;;;;;;5099921;28;19908;-56
2023/06/26 01:28:22;;;;;;;;;;;17.10;98.00;;;;;;5099968;28;19919;-56
2023/06/26 01:30:48;;;;;;;;;;;17.10;98.60;;;;;;5099974;28;19919;-53
2023/06/26 01:33:14;;;;;;;;;;;17.10;98.70;;;;;;5099917;28;19908;-55
2023/06/26 01:35:40;;;;;;;;;;;17.00;98.80;;;;;;5099918;28;20367;-56
2023/06/26 01:38:32;;;;;;;;;;;17.00;99.60;;;;;;5099652;28;19908;-57
2023/06/26 01:40:58;;;;;;;;;;;17.00;99.90;;;;;;5096212;28;19920;-56
2023/06/26 01:43:27;;;;;;;;;;;16.90;98.70;;;;;;5099950;28;19908;-56
2023/06/26 01:45:55;;;;;;;;;;;16.90;99.30;;;;;;5099461;28;19908;-56
2023/06/26 01:48:23;;;;;;;;;;;16.90;99.00;;;;;;5099395;28;19943;-54
2023/06/26 01:50:50;;;;;;;;;;;16.90;99.10;;;;;;5097931;28;19987;-56
2023/06/26 01:53:18;;;;;;;;;;;16.90;99.30;;;;;;5099757;28;19916;-55
2023/06/26 01:55:46;;;;;;;;;;;16.80;99.90;;;;;;5099681;28;19908;-56
2023/06/26 01:58:13;;;;;;;;;;;16.80;99.10;;;;;;5099007;28;19908;-57
2023/06/26 02:00:39;;;;;;;;;;;16.80;99.90;;;;;;5099518;28;19947;-56
2023/06/26 02:03:06;;;;;;;;;;;16.80;99.70;;;;;;5099117;28;19915;-54
2023/06/26 02:05:32;;;;;;;;;;;16.70;99.90;;;;;;5099186;28;19915;-56
2023/06/26 02:07:58;;;;;;;;;;;16.70;99.30;;;;;;5098971;28;19912;-53
2023/06/26 02:10:23;;;;;;;;;;;16.70;99.10;;;;;;5099036;28;19909;-57
2023/06/26 02:12:49;;;;;;;;;;;16.70;99.60;;;;;;5098975;28;20347;-54
2023/06/26 02:15:15;;;;;;;;;;;16.60;99.90;;;;;;5098918;28;19918;-55
2023/06/26 02:17:40;;;;;;;;;;;16.60;99.90;;;;;;5099197;28;20297;-57
2023/06/26 02:20:07;;;;;;;;;;;16.60;99.90;;;;;;5099019;28;19908;-54
2023/06/26 02:22:33;;;;;;;;;;;16.60;99.40;;;;;;5098731;28;19912;-56
2023/06/26 02:24:58;;;;;;;;;;;16.50;99.80;;;;;;5099175;28;19916;-56
2023/06/26 02:27:24;;;;;;;;;;;16.50;99.50;;;;;;5098639;28;19970;-55
2023/06/26 02:29:50;;;;;;;;;;;16.50;99.90;;;;;;5098626;28;19908;-56
2023/06/26 02:32:15;;;;;;;;;;;16.50;99.90;;;;;;5097169;28;19967;-56
2023/06/26 02:34:41;;;;;;;;;;;16.40;99.50;;;;;;5098529;28;19909;-56
2023/06/26 02:37:07;;;;;;;;;;;16.40;99.90;;;;;;5098825;28;19915;-54
2023/06/26 02:39:33;;;;;;;;;;;16.40;99.50;;;;;;5098525;28;19908;-56
2023/06/26 02:41:59;;;;;;;;;;;16.30;99.90;;;;;;5098220;28;19963;-55
2023/06/26 02:44:24;;;;;;;;;;;16.30;99.90;;;;;;5098980;28;19961;-55
2023/06/26 02:46:50;;;;;;;;;;;16.20;99.70;;;;;;5098366;28;19953;-54
2023/06/26 02:49:16;;;;;;;;;;;16.20;99.90;;;;;;5098300;28;19951;-55
2023/06/26 02:51:41;;;;;;;;;;;16.20;99.90;;;;;;5098136;28;19908;-56
2023/06/26 02:54:07;;;;;;;;;;;16.10;99.90;;;;;;5098672;28;20378;-56
2023/06/26 02:56:32;;;;;;;;;;;16.10;99.90;;;;;;5098490;28;19915;-55
2023/06/26 02:58:58;;;;;;;;;;;16.10;99.90;;;;;;5098368;28;19908;-56
2023/06/26 03:01:24;;;;;;;;;;;16.10;99.90;;;;;;5098451;28;19908;-55
2023/06/26 03:03:50;;;;;;;;;;;16.00;99.90;;;;;;5098105;28;20000;-56
2023/06/26 03:06:15;;;;;;;;;;;16.00;99.90;;;;;;5098455;28;19912;-55
2023/06/26 03:08:41;;;;;;;;;;;16.00;99.90;;;;;;5097434;28;19961;-56
2023/06/26 03:11:07;;;;;;;;;;;15.90;99.90;;;;;;5097992;28;19939;-56
2023/06/26 03:13:34;;;;;;;;;;;15.90;99.90;;;;;;5098410;28;19915;-55
2023/06/26 03:15:59;;;;;;;;;;;15.90;99.90;;;;;;5097780;28;20382;-56
2023/06/26 03:18:25;;;;;;;;;;;15.90;99.90;;;;;;5098177;28;19908;-54
2023/06/26 03:20:51;;;;;;;;;;;15.90;99.90;;;;;;5098406;28;19908;-56
2023/06/26 03:23:17;;;;;;;;;;;15.80;99.90;;;;;;5097907;28;19912;-56
2023/06/26 03:25:42;;;;;;;;;;;15.80;99.90;;;;;;5098229;28;19914;-57
2023/06/26 03:28:08;;;;;;;;;;;15.80;99.90;;;;;;5097790;28;19916;-56
2023/06/26 03:30:33;;;;;;;;;;;15.70;99.90;;;;;;5097960;28;20383;-54
2023/06/26 03:32:59;;;;;;;;;;;15.70;99.90;;;;;;5097952;28;19987;-57
2023/06/26 03:35:25;;;;;;;;;;;15.60;99.90;;;;;;5098118;28;19954;-56
2023/06/26 03:37:50;;;;;;;;;;;15.60;99.90;;;;;;5097719;28;19915;-56
2023/06/26 03:40:16;;;;;;;;;;;15.60;99.90;;;;;;5097936;28;19923;-55
2023/06/26 03:42:42;;;;;;;;;;;15.60;99.90;;;;;;5097979;28;19915;-56
2023/06/26 03:45:08;;;;;;;;;;;15.60;99.90;;;;;;5097711;28;19912;-56
2023/06/26 03:47:34;;;;;;;;;;;15.60;99.90;;;;;;5097832;28;19915;-54
2023/06/26 03:49:59;;;;;;;;;;;15.50;99.90;;;;;;5096256;28;20412;-56
2023/06/26 03:52:25;;;;;;;;;;;15.50;99.90;;;;;;5097570;28;19908;-55
2023/06/26 03:54:50;;;;;;;;;;;15.50;99.90;;;;;;5097471;28;19957;-56
2023/06/26 03:57:16;;;;;;;;;;;15.40;99.90;;;;;;5097640;28;19908;-54
2023/06/26 03:59:42;;;;;;;;;;;15.40;99.90;;;;;;5097646;28;19908;-57
2023/06/26 04:02:07;;;;;;;;;;;15.40;99.90;;;;;;5097831;28;20045;-53
2023/06/26 04:04:33;;;;;;;;;;;15.40;99.90;;;;;;5097779;28;19908;-55
2023/06/26 04:06:59;;;;;;;;;;;15.40;99.90;;;;;;5097622;28;19908;-56
2023/06/26 04:09:25;;;;;;;;;;;15.40;99.90;;;;;;5097336;28;20003;-55
2023/06/26 04:11:51;;;;;;;;;;;15.30;99.90;;;;;;5097708;28;20425;-56
2023/06/26 04:14:16;;;;;;;;;;;15.40;99.90;;;;;;5096204;28;19908;-52
2023/06/26 04:16:42;;;;;;;;;;;15.40;99.90;;;;;;5097632;28;19938;-55
2023/06/26 04:19:09;;;;;;;;;;;15.30;99.90;;;;;;5097674;28;19909;-56
2023/06/26 04:21:35;;;;;;;;;;;15.40;99.90;;;;;;5099839;28;19915;-56
2023/06/26 04:24:01;;;;;;;;;;;15.30;99.90;;;;;;5101175;28;19908;-56
2023/06/26 04:26:27;;;;;;;;;;;15.30;99.90;;;;;;5101649;28;19908;-55
2023/06/26 04:28:53;;;;;;;;;;;15.30;99.90;;;;;;5100898;28;19918;-55
2023/06/26 04:31:19;;;;;;;;;;;15.30;99.90;;;;;;5101103;28;19961;-56
2023/06/26 04:33:44;;;;;;;;;;;15.30;99.90;;;;;;5101394;28;19908;-57
2023/06/26 04:36:11;;;;;;;;;;;15.30;99.90;;;;;;5099937;28;19909;-56
2023/06/26 04:38:36;;;;;;;;;;;15.30;99.90;;;;;;5099803;28;19973;-54
2023/06/26 04:41:02;;;;;;;;;;;15.30;99.90;;;;;;5100443;28;19920;-57
2023/06/26 04:43:28;;;;;;;;;;;15.30;99.90;;;;;;5100420;28;20328;-56
2023/06/26 04:45:54;;;;;;;;;;;15.30;99.90;;;;;;5100388;28;19915;-55
2023/06/26 04:48:19;;;;;;;;;;;15.30;99.90;;;;;;5100600;28;19997;-55
2023/06/26 04:50:52;;;;;;;;;;;15.30;99.90;;;;;;5100974;28;20378;-54
2023/06/26 04:53:18;;;;;;;;;;;15.20;99.90;;;;;;5100622;28;19909;-56
2023/06/26 04:55:43;;;;;;;;;;;15.40;99.90;;;;;;5100312;28;20009;-57
2023/06/26 04:58:09;;;;;;;;;;;15.40;99.90;;;;;;5100330;28;19908;-55
2023/06/26 05:00:35;;;;;;;;;;;15.40;99.90;;;;;;5100448;28;19908;-54
2023/06/26 05:03:01;;;;;;;;;;;15.50;99.90;;;;;;5100343;28;19908;-57
2023/06/26 05:05:28;;;;;;;;;;;15.50;99.90;;;;;;5100735;28;19915;-55
2023/06/26 05:07:54;;;;;;;;;;;15.60;99.90;;;;;;5100142;28;20295;-57
2023/06/26 05:10:19;;;;;;;;;;;15.70;99.90;;;;;;5100225;28;19958;-56
2023/06/26 05:12:45;;;;;;;;;;;15.70;99.90;;;;;;5100627;28;20586;-57
2023/06/26 05:15:11;;;;;;;;;;;15.80;99.90;;;;;;5100323;28;19908;-56
2023/06/26 05:17:36;;;;;;;;;;;15.80;99.90;;;;;;5099912;28;19979;-55
2023/06/26 05:20:03;;;;;;;;;;;15.80;99.90;;;;;;5100250;28;20006;-57
2023/06/26 05:22:29;;;;;;;;;;;15.90;99.90;;;;;;5099928;28;19965;-56
2023/06/26 05:24:55;;;;;;;;;;;16.00;99.90;;;;;;5100149;28;19912;-56
2023/06/26 05:27:21;;;;;;;;;;;16.00;99.90;;;;;;5099976;28;19914;-57
2023/06/26 05:29:48;;;;;;;;;;;16.00;99.90;;;;;;5100041;28;20003;-57
2023/06/26 05:32:17;;;;;;;;;;;16.00;99.90;;;;;;5098986;28;19969;-57
2023/06/26 05:34:45;;;;;;;;;;;16.10;99.90;;;;;;5099730;28;19908;-57
2023/06/26 05:37:14;;;;;;;;;;;16.10;99.90;;;;;;5099075;28;20347;-57
2023/06/26 05:39:40;;;;;;;;;;;16.20;99.90;;;;;;5098206;28;19912;-57
2023/06/26 05:42:06;;;;;;;;;;;16.30;99.90;;;;;;5099112;28;19966;-56
2023/06/26 05:44:31;;;;;;;;;;;16.30;99.90;;;;;;5099685;28;19947;-56
2023/06/26 05:46:57;;;;;;;;;;;16.40;99.90;;;;;;5099792;28;19908;-56
2023/06/26 05:49:23;;;;;;;;;;;16.50;99.90;;;;;;5099678;28;19962;-56
2023/06/26 05:51:48;;;;;;;;;;;16.50;99.90;;;;;;5099549;28;19933;-54
2023/06/26 05:54:15;;;;;;;;;;;16.60;99.90;;;;;;5099280;28;19995;-57
2023/06/26 05:56:40;;;;;;;;;;;16.70;99.90;;;;;;5099678;28;19952;-56
2023/06/26 05:59:07;;;;;;;;;;;16.80;99.90;;;;;;5099220;28;19915;-56
2023/06/26 06:01:34;;;;;;;;;;;16.80;99.90;;;;;;5099659;28;19908;-57
2023/06/26 06:03:59;;;;;;;;;;;16.90;99.90;;;;;;5099142;28;19915;-54
2023/06/26 06:06:25;;;;;;;;;;;17.00;99.90;;;;;;5099064;28;19971;-57
2023/06/26 06:08:51;;;;;;;;;;;17.00;99.90;;;;;;5099065;28;19919;-56
2023/06/26 06:11:16;;;;;;;;;;;17.00;99.90;;;;;;5099102;28;19915;-57
2023/06/26 06:13:42;;;;;;;;;;;17.20;99.90;;;;;;5099247;28;19908;-55
2023/06/26 06:16:08;;;;;;;;;;;17.20;99.90;;;;;;5099037;28;20425;-56
2023/06/26 06:18:33;;;;;;;;;;;17.30;99.90;;;;;;5099133;28;19915;-55
2023/06/26 06:20:59;;;;;;;;;;;17.40;99.90;;;;;;5098953;28;19943;-54
2023/06/26 06:23:25;;;;;;;;;;;17.40;99.90;;;;;;5098612;28;19999;-55
2023/06/26 06:25:50;;;;;;;;;;;17.50;99.90;;;;;;5098590;28;19908;-52
2023/06/26 06:28:16;;;;;;;;;;;17.70;99.90;;;;;;5098427;28;19912;-56
2023/06/26 06:30:42;;;;;;;;;;;17.80;99.90;;;;;;5098511;28;19912;-56
2023/06/26 06:33:08;;;;;;;;;;;17.90;99.90;;;;;;5098394;28;19908;-54
2023/06/26 06:35:33;;;;;;;;;;;17.90;99.90;;;;;;5098682;28;20669;-56
2023/06/26 06:37:59;;;;;;;;;;;18.00;99.90;;;;;;5098692;28;20363;-55
2023/06/26 06:40:25;;;;;;;;;;;18.00;99.90;;;;;;5098418;28;19916;-55
2023/06/26 06:42:51;;;;;;;;;;;18.10;99.90;;;;;;5098373;28;19915;-49
2023/06/26 06:45:16;;;;;;;;;;;18.10;99.90;;;;;;5098796;28;19967;-53
2023/06/26 06:47:42;;;;;;;;;;;18.10;99.90;;;;;;5098422;28;19908;-56
2023/06/26 06:50:08;;;;;;;;;;;18.00;99.90;;;;;;5098456;28;19912;-54
2023/06/26 06:52:37;;;;;;;;;;;18.00;99.90;;;;;;5098485;28;21043;-56
2023/06/26 06:55:06;;;;;;;;;;;18.00;99.90;;;;;;5097974;28;19908;-55
2023/06/26 06:57:35;;;;;;;;;;;18.00;99.90;;;;;;5098403;28;20283;-55
2023/06/26 07:00:04;;;;;;;;;;;18.00;99.90;;;;;;5098312;28;19912;-56
2023/06/26 07:02:30;;;;;;;;;;;18.00;99.90;;;;;;5098384;28;19915;-53
2023/06/26 07:04:55;;;;;;;;;;;18.10;99.90;;;;;;5098049;28;19908;-54
2023/06/26 07:07:21;;;;;;;;;;;18.10;99.90;;;;;;5097937;28;19915;-56
2023/06/26 07:09:47;;;;;;;;;;;18.20;99.90;;;;;;5097927;28;19912;-54
2023/06/26 07:12:12;;;;;;;;;;;18.20;99.90;;;;;;5079627;28;19927;-56
2023/06/26 07:14:38;;;;;;;;;;;18.20;99.90;;;;;;5097725;28;19919;-56
2023/06/26 07:17:04;;;;;;;;;;;18.20;99.90;;;;;;5098364;28;19908;-53
2023/06/26 07:19:30;;;;;;;;;;;18.30;99.90;;;;;;5097964;28;19991;-53
2023/06/26 07:21:55;;;;;;;;;;;18.20;99.90;;;;;;5096548;28;19908;-56
2023/06/26 07:24:21;;;;;;;;;;;18.30;99.90;;;;;;5097868;28;19908;-55
2023/06/26 07:26:47;;;;;;;;;;;18.30;99.90;;;;;;5098159;28;20387;-56
2023/06/26 07:29:12;;;;;;;;;;;18.40;99.90;;;;;;5097605;28;19913;-56
2023/06/26 07:31:38;;;;;;;;;;;18.40;99.90;;;;;;5097785;28;20294;-53
2023/06/26 07:34:03;;;;;;;;;;;18.50;99.90;;;;;;5098226;28;20435;-54
2023/06/26 07:36:29;;;;;;;;;;;18.50;99.90;;;;;;5097722;28;19908;-55
2023/06/26 07:38:54;;;;;;;;;;;18.50;99.90;;;;;;5097996;28;19912;-54
2023/06/26 07:41:20;;;;;;;;;;;18.50;99.90;;;;;;5097591;28;20287;-56
2023/06/26 07:43:46;;;;;;;;;;;18.50;99.90;;;;;;5097867;28;19915;-56
2023/06/26 07:46:11;;;;;;;;;;;18.60;99.90;;;;;;5097923;28;19915;-55
2023/06/26 07:48:37;;;;;;;;;;;18.60;99.90;;;;;;5097691;28;19952;-56
2023/06/26 07:51:02;;;;;;;;;;;18.70;99.90;;;;;;5097758;28;19937;-55
2023/06/26 07:53:28;;;;;;;;;;;18.70;99.90;;;;;;5097549;28;19908;-56
2023/06/26 07:55:54;;;;;;;;;;;18.80;99.90;;;;;;5099432;28;19908;-56
2023/06/26 07:58:19;;;;;;;;;;;18.90;99.90;;;;;;5102017;28;19947;-56
2023/06/26 08:00:45;;;;;;;;;;;19.00;99.90;;;;;;5102049;28;19912;-54
2023/06/26 08:03:10;;;;;;;;;;;19.10;99.90;;;;;;5101549;28;19969;-55
2023/06/26 08:05:36;;;;;;;;;;;19.10;99.90;;;;;;5101618;28;20389;-53
2023/06/26 08:08:03;;;;;;;;;;;19.20;99.90;;;;;;5101008;28;19912;-56
2023/06/26 08:10:28;;;;;;;;;;;19.30;99.90;;;;;;5101567;28;19912;-54
2023/06/26 08:12:55;;;;;;;;;;;19.40;99.90;;;;;;5101289;28;19915;-56
2023/06/26 08:15:20;;;;;;;;;;;19.60;99.90;;;;;;5101506;28;19991;-53
2023/06/26 08:17:46;;;;;;;;;;;19.70;99.90;;;;;;5101639;28;19996;-55
2023/06/26 08:20:12;;;;;;;;;;;19.80;99.90;;;;;;5101450;28;19947;-53
2023/06/26 08:22:38;;;;;;;;;;;19.90;99.80;;;;;;5100853;28;19915;-57
2023/06/26 08:25:05;;;;;;;;;;;19.90;99.90;;;;;;5101114;28;20571;-54
2023/06/26 08:27:31;;;;;;;;;;;20.00;99.90;;;;;;5100939;28;19908;-56
2023/06/26 08:29:57;;;;;;;;;;;19.90;98.70;;;;;;5101200;28;19908;-56
2023/06/26 08:32:23;;;;;;;;;;;19.90;96.80;;;;;;5100821;28;19983;-56
2023/06/26 08:34:48;;;;;;;;;;;19.90;97.70;;;;;;5099380;28;19912;-54
2023/06/26 08:37:14;;;;;;;;;;;19.90;98.60;;;;;;5100895;28;20271;-56
2023/06/26 08:39:39;;;;;;;;;;;19.90;92.20;;;;;;5100785;28;19915;-57
2023/06/26 08:42:05;;;;;;;;;;;19.80;93.80;;;;;;5100399;28;19927;-56
2023/06/26 08:44:31;;;;;;;;;;;19.90;98.10;;;;;;5100955;28;19958;-53
2023/06/26 08:46:58;;;;;;;;;;;20.00;97.60;;;;;;5100846;28;20405;-55
2023/06/26 08:49:27;;;;;;;;;;;19.90;94.80;;;;;;5100967;28;20460;-56
2023/06/26 08:51:57;;;;;;;;;;;19.90;94.70;;;;;;5100777;28;20322;-56
2023/06/26 08:54:28;;;;;;;;;;;20.00;96.60;;;;;;5100558;28;19908;-56
2023/06/26 08:56:55;;;;;;;;;;;20.10;97.70;;;;;;5100705;28;19915;-56
2023/06/26 08:59:21;;;;;;;;;;;20.20;86.00;;;;;;5100440;28;19908;-55
2023/06/26 09:01:47;;;;;;;;;;;20.30;90.80;;;;;;5100899;28;19912;-51
2023/06/26 09:04:12;;;;;;;;;;;20.50;94.60;;;;;;5100319;28;19953;-56
2023/06/26 09:06:39;;;;;;;;;;;20.60;94.40;;;;;;5099442;28;19913;-57
2023/06/26 09:09:05;;;;;;;;;;;20.80;90.90;;;;;;5099759;28;20002;-56
2023/06/26 09:11:30;;;;;;;;;;;20.90;90.70;;;;;;5100492;28;19946;-56
2023/06/26 09:13:56;;;;;;;;;;;20.90;82.40;;;;;;5100340;28;19908;-57
2023/06/26 09:16:26;;;;;;;;;;;21.00;92.90;;;;;;5100241;28;19908;-56
2023/06/26 09:18:52;;;;;;;;;;;21.20;86.70;;;;;;5099837;28;20501;-55
2023/06/26 09:21:18;;;;;;;;;;;21.20;80.60;;;;;;5099988;28;19948;-55
2023/06/26 09:23:44;;;;;;;;;;;21.30;90.20;;;;;;5100140;28;19908;-53
2023/06/26 09:26:11;;;;;;;;;;;21.50;88.30;;;;;;5100097;28;20013;-55
2023/06/26 09:28:36;;;;;;;;;;;21.60;85.50;;;;;;5099827;28;19912;-53
2023/06/26 09:31:06;;;;;;;;;;;21.40;80.60;;;;;;5099796;28;20432;-57
2023/06/26 09:33:38;;;;;;;;;;;21.40;91.00;;;;;;5099792;28;19969;-56
2023/06/26 09:36:07;;;;;;;;;;;21.40;92.20;;;;;;5099931;28;19958;-53
2023/06/26 09:38:33;;;;;;;;;;;21.40;84.40;;;;;;5099846;28;20355;-57
2023/06/26 09:40:59;;;;;;;;;;;21.50;91.10;;;;;;5099507;28;19941;-56
2023/06/26 09:43:25;;;;;;;;;;;21.70;90.40;;;;;;5099907;28;19937;-54
2023/06/26 09:45:51;;;;;;;;;;;22.00;89.60;;;;;;5099447;28;19995;-57
2023/06/26 09:48:17;;;;;;;;;;;22.10;84.50;;;;;;5098043;28;19958;-54
2023/06/26 09:50:43;;;;;;;;;;;22.10;80.60;;;;;;5099369;28;19974;-55
2023/06/26 09:53:14;;;;;;;;;;;22.20;90.60;;;;;;5099586;28;19912;-56
2023/06/26 09:55:43;;;;;;;;;;;22.60;91.60;;;;;;5099197;28;20381;-56
2023/06/26 09:58:14;;;;;;;;;;;22.80;83.80;;;;;;5099301;28;19964;-56
2023/06/26 10:00:40;;;;;;;;;;;23.00;90.80;;;;;;5098937;28;19908;-57
2023/06/26 10:03:05;;;;;;;;;;;23.10;90.30;;;;;;5099335;28;19909;-53
2023/06/26 10:05:31;;;;;;;;;;;23.00;83.50;;;;;;5099149;28;19946;-57
2023/06/26 10:07:57;;;;;;;;;;;23.10;81.30;;;;;;5099005;28;19919;-55
2023/06/26 10:10:22;;;;;;;;;;;22.90;86.40;;;;;;5098988;28;19947;-57
2023/06/26 10:12:50;;;;;;;;;;;22.90;88.10;;;;;;5099118;28;19908;-56
2023/06/26 10:15:17;;;;;;;;;;;23.00;79.30;;;;;;5099131;28;20005;-56
2023/06/26 10:17:43;;;;;;;;;;;22.50;81.00;;;;;;5098763;28;19912;-55
2023/06/26 10:20:09;;;;;;;;;;;22.70;86.90;;;;;;5097370;28;19912;-55
2023/06/26 10:22:41;;;;;;;;;;;23.60;81.10;;;;;;5099144;28;20306;-57
2023/06/26 10:25:08;;;;;;;;;;;24.30;87.80;;;;;;5098715;28;20360;-57
2023/06/26 10:27:36;;;;;;;;;;;24.80;77.70;;;;;;5098402;28;19971;-56
2023/06/26 10:30:05;;;;;;;;;;;25.00;82.60;;;;;;5098816;28;19920;-51
2023/06/26 10:32:31;;;;;;;;;;;24.70;66.80;;;;;;5098970;28;19908;-55
2023/06/26 10:34:56;;;;;;;;;;;23.90;69.40;;;;;;5098842;28;20271;-57
2023/06/26 10:37:40;;;;;;;;;;;24.00;72.70;;;;;;5098794;28;19908;-57
2023/06/26 10:40:06;;;;;;;;;;;24.20;70.00;;;;;;5098745;28;19908;-56
2023/06/26 10:42:36;;;;;;;;;;;23.60;68.80;;;;;;5098808;28;19999;-56
2023/06/26 10:45:27;;;;;;;;;;;23.60;70.50;;;;;;5098382;28;20416;-56
2023/06/26 10:47:53;;;;;;;;;;;23.30;72.20;;;;;;5095158;28;19914;-57
2023/06/26 10:50:30;;;;;;;;;;;23.00;72.60;;;;;;5098380;28;20021;-54
2023/06/26 10:53:09;;;;;;;;;;;22.60;72.60;;;;;;5098518;28;19908;-56
2023/06/26 10:55:35;;;;;;;;;;;22.50;73.50;;;;;;5098461;28;19908;-56
2023/06/26 10:58:02;;;;;;;;;;;22.60;78.60;;;;;;5098639;28;20359;-56
2023/06/26 11:00:28;;;;;;;;;;;23.30;78.60;;;;;;5098525;28;19936;-55
2023/06/26 11:02:53;;;;;;;;;;;23.70;72.70;;;;;;5098247;28;19909;-55
2023/06/26 11:05:26;;;;;;;;;;;24.20;70.50;;;;;;5098145;28;19915;-54
2023/06/26 11:08:08;;;;;;;;;;;24.80;73.60;;;;;;5096720;28;21137;-57
2023/06/26 11:10:53;;;;;;;;;;;25.40;70.40;;;;;;5097920;28;19908;-56
2023/06/26 11:13:19;;;;;;;;;;;26.10;66.00;;;;;;5097956;28;20638;-57
2023/06/26 11:15:46;;;;;;;;;;;26.10;62.20;;;;;;5098503;28;19909;-57
2023/06/26 11:18:12;;;;;;;;;;;25.60;61.50;;;;;;5098020;28;19915;-56
2023/06/26 11:20:38;;;;;;;;;;;25.50;63.30;;;;;;5098205;28;20386;-58
2023/06/26 11:23:07;;;;;;;;;;;25.10;61.30;;;;;;5097857;28;19909;-56
2023/06/26 11:25:36;;;;;;;;;;;25.50;63.50;;;;;;5098028;28;19909;-56
2023/06/26 11:28:03;;;;;;;;;;;25.30;61.40;;;;;;5097995;28;19912;-56
2023/06/26 11:30:28;;;;;;;;;;;24.50;62.90;;;;;;5098875;28;19912;-55
2023/06/26 11:33:02;;;;;;;;;;;24.10;64.70;;;;;;5102080;28;19919;-54
2023/06/26 11:35:31;;;;;;;;;;;23.90;64.80;;;;;;5102358;28;19912;-56
2023/06/26 11:37:59;;;;;;;;;;;24.00;65.40;;;;;;5102007;28;20340;-55
2023/06/26 11:40:31;;;;;;;;;;;24.10;66.90;;;;;;5101978;28;19920;-55
2023/06/26 11:43:00;;;;;;;;;;;25.10;65.40;;;;;;5101944;28;19966;-56
2023/06/26 11:45:29;;;;;;;;;;;26.00;61.10;;;;;;5101875;28;19908;-56
2023/06/26 11:47:56;;;;;;;;;;;26.50;60.00;;;;;;5101699;28;19975;-56
2023/06/26 11:50:22;;;;;;;;;;;27.00;61.10;;;;;;5101854;28;20300;-57
2023/06/26 11:52:57;;;;;;;;;;;27.70;58.80;;;;;;5101750;28;19915;-55
2023/06/26 11:55:23;;;;;;;;;;;28.30;57.60;;;;;;5101624;28;19916;-56
2023/06/26 11:57:50;;;;;;;;;;;28.90;53.40;;;;;;5101921;28;20375;-56
2023/06/26 12:00:16;;;;;;;;;;;28.70;54.60;;;;;;5101769;28;19916;-58
2023/06/26 12:02:43;;;;;;;;;;;27.80;52.10;;;;;;5101945;28;19915;-56
2023/06/26 12:05:09;;;;;;;;;;;27.40;54.50;;;;;;5101804;28;19908;-56
2023/06/26 12:07:36;;;;;;;;;;;28.00;52.30;;;;;;5101338;28;19916;-56
2023/06/26 12:10:03;;;;;;;;;;;28.30;55.30;;;;;;5101615;28;19919;-57
2023/06/26 12:12:31;;;;;;;;;;;28.80;52.80;;;;;;5101554;28;19908;-57
2023/06/26 12:14:57;;;;;;;;;;;28.70;54.40;;;;;;5101171;28;19965;-56
2023/06/26 12:17:23;;;;;;;;;;;28.60;53.20;;;;;;5101044;28;19908;-56
2023/06/26 12:19:49;;;;;;;;;;;29.40;54.70;;;;;;5099594;28;19912;-57
2023/06/26 12:22:15;;;;;;;;;;;29.40;52.90;;;;;;5100971;28;19956;-56
2023/06/26 12:24:42;;;;;;;;;;;28.90;53.10;;;;;;5101680;28;20359;-56
2023/06/26 12:27:15;;;;;;;;;;;28.80;51.90;;;;;;5100835;28;19908;-57
2023/06/26 12:29:42;;;;;;;;;;;28.90;54.60;;;;;;5101371;28;20045;-56
2023/06/26 12:32:08;;;;;;;;;;;28.80;52.50;;;;;;5101039;28;19995;-57
2023/06/26 12:34:34;;;;;;;;;;;28.10;50.10;;;;;;5100947;28;19908;-57
2023/06/26 12:37:09;;;;;;;;;;;27.10;51.50;;;;;;5101050;28;19916;-57
2023/06/26 12:39:50;;;;;;;;;;;26.20;57.10;;;;;;5101024;28;20003;-54
2023/06/26 12:42:20;;;;;;;;;;;26.20;60.00;;;;;;5100761;28;19924;-55
2023/06/26 12:44:46;;;;;;;;;;;26.20;58.60;;;;;;5100777;28;19930;-53
2023/06/26 12:47:14;;;;;;;;;;;26.10;59.90;;;;;;5100702;28;19908;-56
2023/06/26 12:49:41;;;;;;;;;;;26.00;60.00;;;;;;5100373;28;19991;-56
2023/06/26 12:52:10;;;;;;;;;;;26.50;60.70;;;;;;5100562;28;19915;-57
2023/06/26 12:54:39;;;;;;;;;;;27.40;58.00;;;;;;5100850;28;19915;-56
2023/06/26 12:57:05;;;;;;;;;;;27.80;55.00;;;;;;5100434;28;19909;-56
2023/06/26 12:59:31;;;;;;;;;;;27.50;53.20;;;;;;5100579;28;19915;-56
2023/06/26 13:01:57;;;;;;;;;;;27.40;54.90;;;;;;5100441;28;19908;-56
2023/06/26 13:04:23;;;;;;;;;;;27.40;54.20;;;;;;5100890;28;19912;-55
2023/06/26 13:06:49;;;;;;;;;;;27.80;53.50;;;;;;5100323;28;19912;-56
2023/06/26 13:09:15;;;;;;;;;;;28.20;54.20;;;;;;5099944;28;19916;-56
2023/06/26 13:11:41;;;;;;;;;;;27.10;53.50;;;;;;5099930;28;19947;-53
2023/06/26 13:14:07;;;;;;;;;;;27.50;53.40;;;;;;5100169;28;20016;-57
2023/06/26 13:16:32;;;;;;;;;;;27.60;51.70;;;;;;5100261;28;19915;-56
2023/06/26 13:18:58;;;;;;;;;;;27.40;53.60;;;;;;5100031;28;19908;-54
2023/06/26 13:21:24;;;;;;;;;;;27.80;53.90;;;;;;5100134;28;19912;-57
2023/06/26 13:23:50;;;;;;;;;;;27.70;52.00;;;;;;5100207;28;19908;-55
2023/06/26 13:26:16;;;;;;;;;;;27.30;51.30;;;;;;5100116;28;19959;-56
2023/06/26 13:28:41;;;;;;;;;;;26.90;53.00;;;;;;5099990;28;19912;-56
2023/06/26 13:31:07;;;;;;;;;;;26.60;54.50;;;;;;5099849;28;19946;-56
2023/06/26 13:33:32;;;;;;;;;;;26.70;55.00;;;;;;5100326;28;20357;-57
2023/06/26 13:35:58;;;;;;;;;;;27.20;56.50;;;;;;5099757;28;19935;-56
2023/06/26 13:38:24;;;;;;;;;;;27.50;56.10;;;;;;5100143;28;20307;-56
2023/06/26 13:40:51;;;;;;;;;;;27.10;57.30;;;;;;5099520;28;19927;-55
2023/06/26 13:43:16;;;;;;;;;;;26.50;58.10;;;;;;5099768;28;19976;-56
2023/06/26 13:45:42;;;;;;;;;;;26.40;56.30;;;;;;5098137;28;20396;-57
2023/06/26 13:48:08;;;;;;;;;;;26.90;54.20;;;;;;5099320;28;19918;-57
2023/06/26 13:50:33;;;;;;;;;;;26.70;53.40;;;;;;5099845;28;19908;-56
2023/06/26 13:52:59;;;;;;;;;;;26.80;55.50;;;;;;5099113;28;19920;-56
2023/06/26 13:55:24;;;;;;;;;;;26.90;52.70;;;;;;5099542;28;19908;-56
2023/06/26 13:57:50;;;;;;;;;;;26.90;53.70;;;;;;5099063;28;19908;-56
2023/06/26 14:00:21;;;;;;;;;;;27.10;53.50;;;;;;5099506;28;19908;-57
2023/06/26 14:02:47;;;;;;;;;;;27.10;53.30;;;;;;5099575;28;19908;-56
2023/06/26 14:05:13;;;;;;;;;;;27.10;54.30;;;;;;5099052;28;19964;-55
2023/06/26 14:07:39;;;;;;;;;;;26.90;53.30;;;;;;5099293;28;19983;-56
2023/06/26 14:10:05;;;;;;;;;;;26.70;53.30;;;;;;5099048;28;20269;-56
2023/06/26 14:12:31;;;;;;;;;;;26.90;54.50;;;;;;5099205;28;19990;-56